createdAt,value
2024-03-18T00:00:48.404Z,602.00
2024-03-18T00:01:48.481Z,601.00
2024-03-18T00:02:48.582Z,601.00
2024-03-18T00:03:48.637Z,603.00
2024-03-18T00:04:48.773Z,602.00
2024-03-18T00:05:48.760Z,601.00
2024-03-18T00:06:48.878Z,603.00
2024-03-18T00:07:48.931Z,602.00
2024-03-18T00:08:49.033Z,603.00
2024-03-18T00:09:49.083Z,601.00
2024-03-18T00:10:49.129Z,603.00
2024-03-18T00:11:49.208Z,601.00
2024-03-18T00:12:49.320Z,602.00
2024-03-18T00:13:49.381Z,602.00
2024-03-18T00:14:49.487Z,602.00
2024-03-18T00:15:49.503Z,601.00
2024-03-18T00:16:49.569Z,600.00
2024-03-18T00:17:49.631Z,602.00
2024-03-18T00:18:49.717Z,600.00
2024-03-18T00:19:49.818Z,602.00
2024-03-18T00:20:49.859Z,602.00
2024-03-18T00:21:49.942Z,602.00
2024-03-18T00:22:50.044Z,601.00
2024-03-18T00:23:50.981Z,601.00
2024-03-18T00:24:50.196Z,601.00
2024-03-18T00:25:50.256Z,602.00
2024-03-18T00:26:50.338Z,601.00
2024-03-18T00:27:50.393Z,601.00
2024-03-18T00:28:50.463Z,602.00
2024-03-18T00:29:50.558Z,602.00
2024-03-18T00:30:50.630Z,602.00
2024-03-18T00:31:50.678Z,602.00
2024-03-18T00:32:50.783Z,602.00
2024-03-18T00:33:50.837Z,600.00
2024-03-18T00:34:50.967Z,603.00
2024-03-18T00:35:51.809Z,603.00
2024-03-18T00:36:51.065Z,605.00
2024-03-18T00:37:51.824Z,605.00
2024-03-18T00:38:51.191Z,604.00
2024-03-18T00:39:51.324Z,605.00
2024-03-18T00:40:51.388Z,604.00
2024-03-18T00:41:51.403Z,603.00
2024-03-18T00:42:51.536Z,606.00
2024-03-18T00:43:51.593Z,604.00
2024-03-18T00:44:51.740Z,603.00
2024-03-18T00:45:51.715Z,602.00
2024-03-18T00:46:51.804Z,602.00
2024-03-18T00:47:51.848Z,604.00
2024-03-18T00:48:51.926Z,604.00
2024-03-18T00:49:52.046Z,603.00
2024-03-18T00:50:52.128Z,603.00
2024-03-18T00:51:52.189Z,601.00
2024-03-18T00:52:52.241Z,604.00
2024-03-18T00:53:52.311Z,605.00
2024-03-18T00:54:52.406Z,605.00
2024-03-18T00:55:52.499Z,602.00
2024-03-18T00:56:52.534Z,603.00
2024-03-18T00:57:52.614Z,603.00
2024-03-18T00:58:52.717Z,604.00
2024-03-18T00:59:52.799Z,605.00
2024-03-18T01:00:52.860Z,603.00
2024-03-18T01:01:52.930Z,603.00
2024-03-18T01:02:52.982Z,605.00
2024-03-18T01:03:53.095Z,605.00
2024-03-18T01:04:53.155Z,604.00
2024-03-18T01:05:53.204Z,605.00
2024-03-18T01:06:53.274Z,603.00
2024-03-18T01:07:53.420Z,605.00
2024-03-18T01:08:53.515Z,603.00
2024-03-18T01:09:53.576Z,603.00
2024-03-18T01:10:53.571Z,604.00
2024-03-18T01:11:53.630Z,605.00
2024-03-18T01:12:53.785Z,603.00
2024-03-18T01:13:53.775Z,601.00
2024-03-18T01:14:53.885Z,604.00
2024-03-18T01:15:53.933Z,602.00
2024-03-18T01:16:54.090Z,602.00
2024-03-18T01:17:54.112Z,605.00
2024-03-18T01:18:54.168Z,601.00
2024-03-18T01:19:54.261Z,602.00
2024-03-18T01:20:54.273Z,602.00
2024-03-18T01:21:54.338Z,602.00
2024-03-18T01:22:54.451Z,602.00
2024-03-18T01:23:54.505Z,600.00
2024-03-18T01:24:54.612Z,604.00
2024-03-18T01:25:54.630Z,603.00
2024-03-18T01:26:54.702Z,602.00
2024-03-18T01:27:54.797Z,603.00
2024-03-18T01:28:54.877Z,604.00
2024-03-18T01:29:54.949Z,605.00
2024-03-18T01:30:55.014Z,602.00
2024-03-18T01:31:55.075Z,601.00
2024-03-18T01:32:55.128Z,603.00
2024-03-18T01:33:55.250Z,601.00
2024-03-18T01:34:55.285Z,601.00
2024-03-18T01:35:55.376Z,601.00
2024-03-18T01:36:55.468Z,602.00
2024-03-18T01:37:55.519Z,605.00
2024-03-18T01:38:55.577Z,602.00
2024-03-18T01:39:55.691Z,602.00
2024-03-18T01:40:55.766Z,603.00
2024-03-18T01:41:55.803Z,605.00
2024-03-18T01:42:55.909Z,604.00
2024-03-18T01:43:55.955Z,604.00
2024-03-18T01:44:56.074Z,603.00
2024-03-18T01:45:56.135Z,605.00
2024-03-18T01:46:56.185Z,604.00
2024-03-18T01:47:56.258Z,603.00
2024-03-18T01:48:56.361Z,603.00
2024-03-18T01:49:56.434Z,604.00
2024-03-18T01:50:56.480Z,603.00
2024-03-18T01:51:56.595Z,603.00
2024-03-18T01:52:56.642Z,603.00
2024-03-18T01:53:56.701Z,605.00
2024-03-18T01:54:56.819Z,603.00
2024-03-18T01:55:56.851Z,605.00
2024-03-18T01:56:56.979Z,604.00
2024-03-18T01:57:57.044Z,605.00
2024-03-18T01:58:57.099Z,604.00
2024-03-18T01:59:57.208Z,605.00
2024-03-18T02:00:57.214Z,604.00
2024-03-18T02:01:57.318Z,602.00
2024-03-18T02:02:57.379Z,604.00
2024-03-18T02:03:57.440Z,603.00
2024-03-18T02:04:57.495Z,605.00
2024-03-18T02:05:57.605Z,604.00
2024-03-18T02:06:57.659Z,605.00
2024-03-18T02:07:57.722Z,603.00
2024-03-18T02:08:57.772Z,606.00
2024-03-18T02:09:57.867Z,603.00
2024-03-18T02:10:57.945Z,605.00
2024-03-18T02:11:58.004Z,605.00
2024-03-18T02:12:58.119Z,604.00
2024-03-18T02:13:58.141Z,603.00
2024-03-18T02:14:58.223Z,604.00
2024-03-18T02:15:58.287Z,605.00
2024-03-18T02:16:58.338Z,605.00
2024-03-18T02:17:58.397Z,606.00
2024-03-18T02:18:58.476Z,607.00
2024-03-18T02:19:58.566Z,606.00
2024-03-18T02:20:58.580Z,606.00
2024-03-18T02:21:58.693Z,607.00
2024-03-18T02:22:58.741Z,606.00
2024-03-18T02:23:58.818Z,605.00
2024-03-18T02:24:58.863Z,606.00
2024-03-18T02:25:58.921Z,610.00
2024-03-18T02:26:58.987Z,604.00
2024-03-18T02:27:59.054Z,607.00
2024-03-18T02:28:59.139Z,608.00
2024-03-18T02:29:59.241Z,607.00
2024-03-18T02:30:59.289Z,607.00
2024-03-18T02:31:59.359Z,606.00
2024-03-18T02:32:59.433Z,608.00
2024-03-18T02:33:59.465Z,606.00
2024-03-18T02:34:59.581Z,608.00
2024-03-18T02:35:59.658Z,609.00
2024-03-18T02:36:59.714Z,608.00
2024-03-18T02:37:59.758Z,608.00
2024-03-18T02:38:59.823Z,609.00
2024-03-18T02:39:59.919Z,605.00
2024-03-18T02:41:00.008Z,611.00
2024-03-18T02:42:00.030Z,608.00
2024-03-18T02:43:00.112Z,610.00
2024-03-18T02:44:00.179Z,608.00
2024-03-18T02:45:00.261Z,610.00
2024-03-18T02:46:00.342Z,610.00
2024-03-18T02:47:00.453Z,611.00
2024-03-18T02:48:00.551Z,613.00
2024-03-18T02:49:00.613Z,612.00
2024-03-18T02:50:00.674Z,614.00
2024-03-18T02:51:00.731Z,612.00
2024-03-18T02:52:00.790Z,612.00
2024-03-18T02:53:00.846Z,614.00
2024-03-18T02:54:00.950Z,611.00
2024-03-18T02:55:01.012Z,614.00
2024-03-18T02:56:01.087Z,616.00
2024-03-18T02:57:01.191Z,612.00
2024-03-18T02:58:01.244Z,616.00
2024-03-18T02:59:01.306Z,614.00
2024-03-18T03:00:01.385Z,615.00
2024-03-18T03:01:01.465Z,616.00
2024-03-18T03:02:01.603Z,617.00
2024-03-18T03:03:01.583Z,615.00
2024-03-18T03:04:01.667Z,617.00
2024-03-18T03:05:01.714Z,615.00
2024-03-18T03:06:01.779Z,616.00
2024-03-18T03:07:01.862Z,616.00
2024-03-18T03:08:01.915Z,618.00
2024-03-18T03:09:01.989Z,619.00
2024-03-18T03:10:02.155Z,618.00
2024-03-18T03:11:02.132Z,618.00
2024-03-18T03:12:02.201Z,619.00
2024-03-18T03:13:02.271Z,620.00
2024-03-18T03:14:02.329Z,620.00
2024-03-18T03:15:02.443Z,619.00
2024-03-18T03:16:02.519Z,618.00
2024-03-18T03:17:02.552Z,618.00
2024-03-18T03:18:03.347Z,618.00
2024-03-18T03:19:02.683Z,619.00
2024-03-18T03:20:02.763Z,619.00
2024-03-18T03:21:02.829Z,617.00
2024-03-18T03:22:02.898Z,620.00
2024-03-18T03:23:03.004Z,619.00
2024-03-18T03:24:03.053Z,618.00
2024-03-18T03:25:03.133Z,617.00
2024-03-18T03:26:03.234Z,619.00
2024-03-18T03:27:03.277Z,620.00
2024-03-18T03:28:03.361Z,619.00
2024-03-18T03:29:03.466Z,620.00
2024-03-18T03:30:05.060Z,620.00
2024-03-18T03:31:03.512Z,618.00
2024-03-18T03:32:03.568Z,619.00
2024-03-18T03:33:03.595Z,620.00
2024-03-18T03:34:03.594Z,620.00
2024-03-18T03:35:03.673Z,620.00
2024-03-18T03:36:03.669Z,618.00
2024-03-18T03:37:03.716Z,620.00
2024-03-18T03:38:03.744Z,619.00
2024-03-18T03:39:03.792Z,619.00
2024-03-18T03:40:03.900Z,617.00
2024-03-18T03:41:03.933Z,621.00
2024-03-18T03:42:03.991Z,619.00
2024-03-18T03:43:04.126Z,619.00
2024-03-18T03:44:04.150Z,618.00
2024-03-18T03:45:04.238Z,619.00
2024-03-18T03:46:04.338Z,618.00
2024-03-18T03:47:05.864Z,621.00
2024-03-18T03:48:04.667Z,618.00
2024-03-18T03:49:04.623Z,619.00
2024-03-18T03:50:04.683Z,619.00
2024-03-18T03:51:04.706Z,617.00
2024-03-18T03:52:04.726Z,619.00
2024-03-18T03:53:04.739Z,620.00
2024-03-18T03:54:04.742Z,620.00
2024-03-18T03:55:04.804Z,619.00
2024-03-18T03:56:04.815Z,620.00
2024-03-18T03:57:04.835Z,620.00
2024-03-18T03:58:05.452Z,619.00
2024-03-18T03:59:04.881Z,622.00
2024-03-18T04:00:06.625Z,620.00
2024-03-18T04:01:04.933Z,622.00
2024-03-18T04:02:04.965Z,620.00
2024-03-18T04:03:05.005Z,620.00
2024-03-18T04:04:05.012Z,621.00
2024-03-18T04:05:05.040Z,621.00
2024-03-18T04:06:05.090Z,620.00
2024-03-18T04:07:05.090Z,625.00
2024-03-18T04:08:05.101Z,622.00
2024-03-18T04:09:05.147Z,623.00
2024-03-18T04:10:05.279Z,624.00
2024-03-18T04:11:05.337Z,627.00
2024-03-18T04:12:05.432Z,625.00
2024-03-18T04:13:05.505Z,624.00
2024-03-18T04:14:05.549Z,628.00
2024-03-18T04:15:05.617Z,626.00
2024-03-18T04:16:05.729Z,627.00
2024-03-18T04:17:05.782Z,626.00
2024-03-18T04:18:05.840Z,627.00
2024-03-18T04:19:05.924Z,629.00
2024-03-18T04:20:06.049Z,628.00
2024-03-18T04:21:06.057Z,627.00
2024-03-18T04:22:06.117Z,628.00
2024-03-18T04:23:06.193Z,628.00
2024-03-18T04:24:06.292Z,630.00
2024-03-18T04:25:06.350Z,628.00
2024-03-18T04:26:06.465Z,629.00
2024-03-18T04:27:06.494Z,629.00
2024-03-18T04:28:06.604Z,630.00
2024-03-18T04:29:06.685Z,629.00
2024-03-18T04:30:07.093Z,630.00
2024-03-18T04:31:06.846Z,632.00
2024-03-18T04:32:06.915Z,633.00
2024-03-18T04:33:07.008Z,629.00
2024-03-18T04:34:07.116Z,631.00
2024-03-18T04:35:07.164Z,631.00
2024-03-18T04:36:07.251Z,632.00
2024-03-18T04:37:07.292Z,632.00
2024-03-18T04:38:07.389Z,631.00
2024-03-18T04:39:07.469Z,633.00
2024-03-18T04:40:07.507Z,632.00
2024-03-18T04:41:07.582Z,632.00
2024-03-18T04:42:07.692Z,632.00
2024-03-18T04:43:07.724Z,632.00
2024-03-18T04:44:07.799Z,633.00
2024-03-18T04:45:07.933Z,635.00
2024-03-18T04:46:07.967Z,635.00
2024-03-18T04:47:08.036Z,635.00
2024-03-18T04:48:08.080Z,636.00
2024-03-18T04:49:08.154Z,635.00
2024-03-18T04:50:08.258Z,637.00
2024-03-18T04:51:08.377Z,633.00
2024-03-18T04:52:08.369Z,637.00
2024-03-18T04:53:08.489Z,637.00
2024-03-18T04:54:08.517Z,636.00
2024-03-18T04:55:08.605Z,637.00
2024-03-18T04:56:08.647Z,637.00
2024-03-18T04:57:08.710Z,638.00
2024-03-18T04:58:08.767Z,638.00
2024-03-18T04:59:08.882Z,639.00
2024-03-18T05:00:08.944Z,640.00
2024-03-18T05:01:09.027Z,637.00
2024-03-18T05:02:09.101Z,638.00
2024-03-18T05:03:09.161Z,639.00
2024-03-18T05:04:09.222Z,639.00
2024-03-18T05:05:09.394Z,637.00
2024-03-18T05:06:09.415Z,637.00
2024-03-18T05:07:09.508Z,636.00
2024-03-18T05:08:09.561Z,638.00
2024-03-18T05:09:09.615Z,637.00
2024-03-18T05:10:09.771Z,636.00
2024-03-18T05:11:09.754Z,637.00
2024-03-18T05:12:09.851Z,636.00
2024-03-18T05:13:09.954Z,637.00
2024-03-18T05:14:09.994Z,638.00
2024-03-18T05:15:10.101Z,640.00
2024-03-18T05:16:10.179Z,638.00
2024-03-18T05:17:10.221Z,640.00
2024-03-18T05:18:10.307Z,637.00
2024-03-18T05:19:10.350Z,638.00
2024-03-18T05:20:10.456Z,640.00
2024-03-18T05:21:10.547Z,639.00
2024-03-18T05:22:10.591Z,639.00
2024-03-18T05:23:10.666Z,639.00
2024-03-18T05:24:10.757Z,639.00
2024-03-18T05:25:10.866Z,639.00
2024-03-18T05:26:10.920Z,638.00
2024-03-18T05:27:11.010Z,639.00
2024-03-18T05:28:11.066Z,636.00
2024-03-18T05:29:11.129Z,639.00
2024-03-18T05:30:11.184Z,639.00
2024-03-18T05:31:11.306Z,639.00
2024-03-18T05:32:11.340Z,641.00
2024-03-18T05:33:11.427Z,639.00
2024-03-18T05:34:11.485Z,639.00
2024-03-18T05:35:11.575Z,641.00
2024-03-18T05:36:11.638Z,639.00
2024-03-18T05:37:11.699Z,640.00
2024-03-18T05:38:11.807Z,641.00
2024-03-18T05:39:11.873Z,644.00
2024-03-18T05:40:11.978Z,643.00
2024-03-18T05:41:11.987Z,643.00
2024-03-18T05:42:12.092Z,643.00
2024-03-18T05:43:45.789Z,600.00
2024-03-18T05:44:45.792Z,600.00
2024-03-18T05:45:45.858Z,600.00
2024-03-18T05:46:45.870Z,600.00
2024-03-18T05:47:45.903Z,600.00
2024-03-18T05:48:45.872Z,602.00
2024-03-18T05:49:45.931Z,604.00
2024-03-18T05:50:45.929Z,604.00
2024-03-18T05:51:45.885Z,601.00
2024-03-18T05:52:45.885Z,601.00
2024-03-18T05:53:45.909Z,602.00
2024-03-18T05:54:45.920Z,603.00
2024-03-18T05:55:45.897Z,603.00
2024-03-18T05:56:45.891Z,602.00
2024-03-18T05:57:45.885Z,603.00
2024-03-18T05:58:45.892Z,603.00
2024-03-18T05:59:45.912Z,605.00
2024-03-18T06:00:45.903Z,602.00
2024-03-18T06:01:45.877Z,605.00
2024-03-18T06:02:45.923Z,605.00
2024-03-18T06:03:45.875Z,606.00
2024-03-18T06:04:45.924Z,604.00
2024-03-18T06:05:45.930Z,606.00
2024-03-18T06:06:46.018Z,607.00
2024-03-18T06:07:45.949Z,609.00
2024-03-18T06:08:45.914Z,609.00
2024-03-18T06:09:45.920Z,607.00
2024-03-18T06:10:45.981Z,606.00
2024-03-18T06:11:45.929Z,608.00
2024-03-18T06:12:45.926Z,609.00
2024-03-18T06:13:45.918Z,606.00
2024-03-18T06:14:45.916Z,609.00
2024-03-18T06:15:45.943Z,609.00
2024-03-18T06:16:45.936Z,609.00
2024-03-18T06:17:45.965Z,609.00
2024-03-18T06:18:45.924Z,609.00
2024-03-18T06:19:45.924Z,609.00
2024-03-18T06:20:45.953Z,610.00
2024-03-18T06:21:45.937Z,610.00
2024-03-18T06:22:45.940Z,612.00
2024-03-18T06:23:45.952Z,614.00
2024-03-18T06:24:46.925Z,616.00
2024-03-18T06:25:45.964Z,613.00
2024-03-18T06:26:46.008Z,614.00
2024-03-18T06:27:46.093Z,617.00
2024-03-18T06:28:46.156Z,617.00
2024-03-18T06:29:46.223Z,621.00
2024-03-18T06:30:46.315Z,620.00
2024-03-18T06:31:46.350Z,621.00
2024-03-18T06:32:46.434Z,621.00
2024-03-18T06:33:46.541Z,624.00
2024-03-18T06:34:50.036Z,623.00
2024-03-18T06:35:46.595Z,627.00
2024-03-18T06:36:46.565Z,625.00
2024-03-18T06:37:46.622Z,629.00
2024-03-18T06:38:46.564Z,629.00
2024-03-18T06:39:46.617Z,634.00
2024-03-18T06:40:46.574Z,638.00
2024-03-18T06:41:46.632Z,639.00
2024-03-18T06:42:46.610Z,644.00
2024-03-18T06:43:46.613Z,647.00
2024-03-18T06:44:46.578Z,653.00
2024-03-18T06:45:46.643Z,658.00
2024-03-18T06:46:46.561Z,660.00
2024-03-18T06:47:48.884Z,663.00
2024-03-18T06:48:46.558Z,663.00
2024-03-18T06:49:46.649Z,666.00
2024-03-18T06:50:46.570Z,680.00
2024-03-18T06:51:46.604Z,706.00
2024-03-18T06:52:46.613Z,743.00
2024-03-18T06:53:46.578Z,748.00
2024-03-18T06:54:46.606Z,760.00
2024-03-18T06:55:48.748Z,773.00
2024-03-18T06:56:46.591Z,773.00
2024-03-18T06:57:46.598Z,778.00
2024-03-18T06:58:46.640Z,783.00
2024-03-18T06:59:46.604Z,790.00
2024-03-18T07:00:46.653Z,796.00
2024-03-18T07:01:46.739Z,805.00
2024-03-18T07:02:46.759Z,808.00
2024-03-18T07:03:46.852Z,822.00
2024-03-18T07:04:46.898Z,830.00
2024-03-18T07:05:46.975Z,833.00
2024-03-18T07:06:47.016Z,835.00
2024-03-18T07:07:47.007Z,837.00
2024-03-18T07:08:47.034Z,835.00
2024-03-18T07:09:47.071Z,845.00
2024-03-18T07:10:47.142Z,848.00
2024-03-18T07:11:47.154Z,852.00
2024-03-18T07:12:47.194Z,873.00
2024-03-18T07:13:47.195Z,874.00
2024-03-18T07:14:47.226Z,878.00
2024-03-18T07:15:47.240Z,890.00
2024-03-18T07:16:47.324Z,902.00
2024-03-18T07:17:47.330Z,907.00
2024-03-18T07:18:47.381Z,920.00
2024-03-18T07:20:02.852Z,936.00
2024-03-18T07:20:48.845Z,937.00
2024-03-18T07:21:47.459Z,942.00
2024-03-18T07:22:47.462Z,949.00
2024-03-18T07:23:47.471Z,971.00
2024-03-18T07:24:47.442Z,1002.00
2024-03-18T07:25:47.479Z,1009.00
2024-03-18T07:26:47.525Z,1023.00
2024-03-18T07:27:47.509Z,1044.00
2024-03-18T07:28:47.485Z,1049.00
2024-03-18T07:29:47.482Z,1065.00
2024-03-18T07:30:47.577Z,1082.00
2024-03-18T07:31:47.623Z,1091.00
2024-03-18T07:32:47.680Z,1100.00
2024-03-18T07:33:47.699Z,1118.00
2024-03-18T07:34:49.567Z,1130.00
2024-03-18T07:35:47.833Z,1145.00
2024-03-18T07:36:47.872Z,1149.00
2024-03-18T07:37:47.818Z,1162.00
2024-03-18T07:38:47.877Z,1182.00
2024-03-18T07:39:47.820Z,1190.00
2024-03-18T07:40:47.815Z,1203.00
2024-03-18T07:41:47.855Z,1215.00
2024-03-18T07:42:47.844Z,1224.00
2024-03-18T07:43:47.894Z,1231.00
2024-03-18T07:44:47.806Z,1244.00
2024-03-18T07:45:47.898Z,1257.00
2024-03-18T07:46:47.862Z,1276.00
2024-03-18T07:47:47.837Z,1278.00
2024-03-18T07:48:47.874Z,1280.00
2024-03-18T07:49:47.844Z,1276.00
2024-03-18T07:50:47.913Z,1278.00
2024-03-18T07:51:47.862Z,1284.00
2024-03-18T07:52:47.907Z,1306.00
2024-03-18T07:53:47.903Z,1318.00
2024-03-18T07:54:47.904Z,1338.00
2024-03-18T07:55:47.918Z,1352.00
2024-03-18T07:56:47.941Z,1383.00
2024-03-18T07:57:48.090Z,1399.00
2024-03-18T07:58:47.916Z,1420.00
2024-03-18T07:59:47.883Z,1430.00
2024-03-18T08:00:47.930Z,1463.00
2024-03-18T08:01:47.929Z,1483.00
2024-03-18T08:02:47.961Z,1477.00
2024-03-18T08:03:47.918Z,1508.00
2024-03-18T08:04:47.942Z,1517.00
2024-03-18T08:05:47.928Z,1530.00
2024-03-18T08:06:47.892Z,1526.00
2024-03-18T08:07:47.903Z,1549.00
2024-03-18T08:08:47.999Z,1547.00
2024-03-18T08:09:48.118Z,1545.00
2024-03-18T08:10:49.684Z,1568.00
2024-03-18T08:11:48.247Z,1585.00
2024-03-18T08:12:48.309Z,1567.00
2024-03-18T08:13:48.303Z,1572.00
2024-03-18T08:14:48.424Z,1574.00
2024-03-18T08:15:48.552Z,1586.00
2024-03-18T08:16:48.643Z,1592.00
2024-03-18T08:17:48.790Z,1587.00
2024-03-18T08:18:48.837Z,1592.00
2024-03-18T08:19:49.007Z,1598.00
2024-03-18T08:20:50.812Z,1601.00
2024-03-18T08:21:49.149Z,1596.00
2024-03-18T08:22:49.203Z,1618.00
2024-03-18T08:23:49.246Z,1599.00
2024-03-18T08:24:49.240Z,1597.00
2024-03-18T08:25:49.316Z,1602.00
2024-03-18T08:26:49.325Z,1602.00
2024-03-18T08:27:49.375Z,1607.00
2024-03-18T08:28:49.424Z,1613.00
2024-03-18T08:29:49.537Z,1618.00
2024-03-18T08:30:49.590Z,1637.00
2024-03-18T08:31:49.695Z,1635.00
2024-03-18T08:33:03.509Z,1648.00
2024-03-18T08:34:04.342Z,1649.00
2024-03-18T08:34:50.851Z,1650.00
2024-03-18T08:35:49.865Z,1657.00
2024-03-18T08:36:49.848Z,1670.00
2024-03-18T08:37:49.903Z,1690.00
2024-03-18T08:38:49.858Z,1718.00
2024-03-18T08:39:50.627Z,1728.00
2024-03-18T08:40:49.867Z,1727.00
2024-03-18T08:41:49.945Z,1730.00
2024-03-18T08:42:49.904Z,1724.00
2024-03-18T08:43:49.923Z,1677.00
2024-03-18T08:44:49.859Z,1634.00
2024-03-18T08:45:49.872Z,1558.00
2024-03-18T08:46:49.847Z,1491.00
2024-03-18T08:47:49.887Z,1435.00
2024-03-18T08:48:49.864Z,1373.00
2024-03-18T08:49:49.873Z,1334.00
2024-03-18T08:50:49.946Z,1246.00
2024-03-18T08:51:49.899Z,1164.00
2024-03-18T08:52:49.859Z,1104.00
2024-03-18T08:53:49.852Z,1067.00
2024-03-18T08:54:49.858Z,1027.00
2024-03-18T08:55:49.893Z,1005.00
2024-03-18T08:56:49.877Z,977.00
2024-03-18T08:57:49.898Z,948.00
2024-03-18T08:58:51.674Z,939.00
2024-03-18T08:59:50.018Z,906.00
2024-03-18T09:00:50.075Z,887.00
2024-03-18T09:01:50.069Z,863.00
2024-03-18T09:02:50.203Z,834.00
2024-03-18T09:03:50.190Z,822.00
2024-03-18T09:04:50.198Z,805.00
2024-03-18T09:05:50.196Z,786.00
2024-03-18T09:06:50.272Z,767.00
2024-03-18T09:07:50.314Z,741.00
2024-03-18T09:08:50.425Z,739.00
2024-03-18T09:09:50.478Z,746.00
2024-03-18T09:10:50.645Z,774.00
2024-03-18T09:11:50.650Z,801.00
2024-03-18T09:12:50.698Z,835.00
2024-03-18T09:13:50.753Z,866.00
2024-03-18T09:14:50.872Z,890.00
2024-03-18T09:15:50.979Z,912.00
2024-03-18T09:16:51.005Z,930.00
2024-03-18T09:17:52.998Z,944.00
2024-03-18T09:18:51.299Z,960.00
2024-03-18T09:19:51.359Z,971.00
2024-03-18T09:20:51.415Z,979.00
2024-03-18T09:21:51.482Z,1005.00
2024-03-18T09:22:51.530Z,1047.00
2024-03-18T09:23:51.555Z,1072.00
2024-03-18T09:24:52.489Z,1076.00
2024-03-18T09:25:51.624Z,1094.00
2024-03-18T09:26:51.630Z,1102.00
2024-03-18T09:27:51.653Z,1118.00
2024-03-18T09:28:51.814Z,1125.00
2024-03-18T09:29:51.694Z,1135.00
2024-03-18T09:30:51.846Z,1154.00
2024-03-18T09:31:51.941Z,1156.00
2024-03-18T09:32:52.941Z,1171.00
2024-03-18T09:33:52.126Z,1192.00
2024-03-18T09:35:44.953Z,600.00
2024-03-18T09:36:43.803Z,600.00
2024-03-18T09:37:43.818Z,600.00
2024-03-18T09:38:43.757Z,600.00
2024-03-18T09:39:43.903Z,600.00
2024-03-18T09:40:43.773Z,604.00
2024-03-18T09:41:45.547Z,612.00
2024-03-18T09:42:43.822Z,634.00
2024-03-18T09:43:43.813Z,634.00
2024-03-18T09:44:43.802Z,626.00
2024-03-18T09:45:43.804Z,607.00
2024-03-18T09:46:43.780Z,602.00
2024-03-18T09:47:46.385Z,618.00
2024-03-18T09:48:43.769Z,598.00
2024-03-18T09:49:43.789Z,579.00
2024-03-18T09:50:43.895Z,578.00
2024-03-18T09:51:43.854Z,582.00
2024-03-18T09:52:43.860Z,592.00
2024-03-18T09:53:43.812Z,606.00
2024-03-18T09:54:43.867Z,607.00
2024-03-18T09:55:43.837Z,615.00
2024-03-18T09:56:43.827Z,620.00
2024-03-18T09:57:43.848Z,619.00
2024-03-18T09:58:43.792Z,619.00
2024-03-18T09:59:43.813Z,625.00
2024-03-18T10:00:43.809Z,619.00
2024-03-18T10:01:43.824Z,619.00
2024-03-18T10:02:43.866Z,612.00
2024-03-18T10:03:43.828Z,614.00
2024-03-18T10:04:43.835Z,610.00
2024-03-18T10:05:43.837Z,607.00
2024-03-18T10:06:43.855Z,607.00
2024-03-18T10:07:43.907Z,602.00
2024-03-18T10:08:43.914Z,601.00
2024-03-18T10:09:44.932Z,604.00
2024-03-18T10:10:44.084Z,600.00
2024-03-18T10:11:44.088Z,598.00
2024-03-18T10:12:44.115Z,602.00
2024-03-18T10:13:44.196Z,600.00
2024-03-18T10:14:44.213Z,601.00
2024-03-18T10:15:45.394Z,602.00
2024-03-18T10:16:44.271Z,602.00
2024-03-18T10:17:44.287Z,606.00
2024-03-18T10:18:44.284Z,600.00
2024-03-18T10:19:44.306Z,602.00
2024-03-18T10:20:44.303Z,602.00
2024-03-18T10:21:44.369Z,604.00
2024-03-18T10:22:44.320Z,601.00
2024-03-18T10:23:44.327Z,603.00
2024-03-18T10:24:44.295Z,602.00
2024-03-18T10:25:44.349Z,605.00
2024-03-18T10:26:44.365Z,600.00
2024-03-18T10:27:46.871Z,605.00
2024-03-18T10:28:44.329Z,605.00
2024-03-18T10:29:44.329Z,599.00
2024-03-18T10:30:44.367Z,589.00
2024-03-18T10:31:44.334Z,593.00
2024-03-18T10:32:44.339Z,587.00
2024-03-18T10:33:44.359Z,602.00
2024-03-18T10:34:44.361Z,603.00
2024-03-18T10:35:44.350Z,605.00
2024-03-18T10:36:53.186Z,600.00
2024-03-18T10:37:45.345Z,600.00
2024-03-18T10:38:44.435Z,600.00
2024-03-18T10:39:44.378Z,600.00
2024-03-18T10:40:44.383Z,602.00
2024-03-18T10:41:44.423Z,602.00
2024-03-18T10:42:44.393Z,604.00
2024-03-18T10:43:46.404Z,609.00
2024-03-18T10:44:44.454Z,602.00
2024-03-18T10:45:44.419Z,600.00
2024-03-18T10:46:44.526Z,606.00
2024-03-18T10:47:44.586Z,613.00
2024-03-18T10:48:44.680Z,624.00
2024-03-18T10:49:46.468Z,610.00
2024-03-18T10:50:44.658Z,599.00
2024-03-18T10:51:44.684Z,600.00
2024-03-18T10:52:44.678Z,596.00
2024-03-18T10:53:52.972Z,600.00
2024-03-18T10:54:45.657Z,600.00
2024-03-18T10:55:44.693Z,590.00
2024-03-18T10:56:44.695Z,575.00
2024-03-18T10:57:44.764Z,605.00
2024-03-18T10:58:44.673Z,581.00
2024-03-18T10:59:44.720Z,600.00
2024-03-18T11:00:44.659Z,602.00
2024-03-18T11:01:44.704Z,600.00
2024-03-18T11:02:44.693Z,598.00
2024-03-18T11:03:44.679Z,602.00
2024-03-18T11:04:44.718Z,602.00
2024-03-18T11:05:44.855Z,600.00
2024-03-18T11:06:44.851Z,605.00
2024-03-18T11:07:44.961Z,603.00
2024-03-18T11:08:45.005Z,610.00
2024-03-18T11:09:45.158Z,602.00
2024-03-18T11:10:45.114Z,599.00
2024-03-18T11:11:47.159Z,609.00
2024-03-18T11:12:45.157Z,602.00
2024-03-18T11:13:45.214Z,609.00
2024-03-18T11:14:45.228Z,616.00
2024-03-18T11:15:45.267Z,613.00
2024-03-18T11:16:45.342Z,608.00
2024-03-18T11:17:45.309Z,603.00
2024-03-18T11:18:45.496Z,611.00
2024-03-18T11:19:45.422Z,622.00
2024-03-18T11:20:45.539Z,625.00
2024-03-18T11:21:45.568Z,619.00
2024-03-18T11:22:45.641Z,612.00
2024-03-18T11:23:45.658Z,617.00
2024-03-18T11:24:45.738Z,615.00
2024-03-18T11:25:45.786Z,609.00
2024-03-18T11:26:45.904Z,609.00
2024-03-18T11:27:47.415Z,611.00
2024-03-18T11:28:46.016Z,615.00
2024-03-18T11:29:46.021Z,618.00
2024-03-18T11:30:46.060Z,628.00
2024-03-18T11:31:46.137Z,625.00
2024-03-18T11:32:46.213Z,635.00
2024-03-18T11:33:47.452Z,627.00
2024-03-18T11:34:46.303Z,628.00
2024-03-18T11:35:46.364Z,628.00
2024-03-18T11:36:46.428Z,629.00
2024-03-18T11:37:46.520Z,639.00
2024-03-18T11:38:46.670Z,646.00
2024-03-18T11:39:46.707Z,647.00
2024-03-18T11:40:46.834Z,646.00
2024-03-18T11:41:46.979Z,650.00
2024-03-18T11:42:47.013Z,651.00
2024-03-18T11:43:47.105Z,646.00
2024-03-18T11:44:47.287Z,657.00
2024-03-18T11:45:47.564Z,683.00
2024-03-18T11:46:47.480Z,660.00
2024-03-18T11:47:47.511Z,661.00
2024-03-18T11:48:47.624Z,658.00
2024-03-18T11:49:47.679Z,675.00
2024-03-18T11:50:47.829Z,653.00
2024-03-18T11:51:47.908Z,647.00
2024-03-18T11:52:47.963Z,650.00
2024-03-18T11:53:48.128Z,667.00
2024-03-18T11:54:48.198Z,663.00
2024-03-18T11:55:48.297Z,671.00
2024-03-18T11:56:48.398Z,664.00
2024-03-18T11:57:48.517Z,677.00
2024-03-18T11:58:48.619Z,692.00
2024-03-18T11:59:48.708Z,716.00
2024-03-18T12:00:48.819Z,743.00
2024-03-18T12:01:48.950Z,751.00
2024-03-18T12:02:49.006Z,767.00
2024-03-18T12:03:49.127Z,764.00
2024-03-18T12:04:49.265Z,786.00
2024-03-18T12:05:49.344Z,759.00
2024-03-18T12:06:49.490Z,767.00
2024-03-18T12:07:49.572Z,733.00
2024-03-18T12:08:49.665Z,738.00
2024-03-18T12:09:49.783Z,740.00
2024-03-18T12:10:49.874Z,752.00
2024-03-18T12:11:49.996Z,773.00
2024-03-18T12:12:50.104Z,774.00
2024-03-18T12:13:50.167Z,778.00
2024-03-18T12:14:50.278Z,754.00
2024-03-18T12:15:50.409Z,751.00
2024-03-18T12:16:50.491Z,714.00
2024-03-18T12:17:50.581Z,687.00
2024-03-18T12:18:50.675Z,693.00
2024-03-18T12:19:50.810Z,669.00
2024-03-18T12:20:50.877Z,661.00
2024-03-18T12:21:51.037Z,658.00
2024-03-18T12:22:51.088Z,682.00
2024-03-18T12:23:51.237Z,698.00
2024-03-18T12:24:51.324Z,682.00
2024-03-18T12:25:51.436Z,696.00
2024-03-18T12:26:51.531Z,709.00
2024-03-18T12:27:51.638Z,719.00